createdAt,value
2018-08-23T00:01:20.026Z,15.30
2018-08-23T00:03:49.236Z,16.00
2018-08-23T00:06:18.466Z,16.03
2018-08-23T00:08:48.287Z,15.50
2018-08-23T00:11:21.924Z,14.90
2018-08-23T00:13:51.228Z,15.30
2018-08-23T00:16:30.342Z,14.80
2018-08-23T00:18:59.535Z,15.10
2018-08-23T00:21:29.107Z,13.53
2018-08-23T00:24:19.282Z,13.73
2018-08-23T00:26:55.422Z,13.10
2018-08-23T00:29:27.577Z,13.80
2018-08-23T00:32:02.346Z,13.18
2018-08-23T00:34:33.893Z,12.50
2018-08-23T00:37:03.239Z,13.43
2018-08-23T00:39:32.518Z,13.60
2018-08-23T00:42:12.900Z,14.57
2018-08-23T00:44:57.253Z,14.40
2018-08-23T00:47:28.939Z,14.10
2018-08-23T00:49:58.296Z,13.53
2018-08-23T00:52:38.376Z,13.10
2018-08-23T00:55:30.004Z,13.00
2018-08-23T00:57:59.395Z,13.53
2018-08-23T01:00:29.204Z,13.60
2018-08-23T01:03:02.558Z,13.20
2018-08-23T01:05:40.894Z,12.27
2018-08-23T01:08:10.187Z,13.73
2018-08-23T01:10:40.341Z,12.80
2018-08-23T01:13:09.560Z,13.00
2018-08-23T01:15:39.058Z,13.08
2018-08-23T01:18:12.602Z,14.07
2018-08-23T01:20:42.659Z,14.00
2018-08-23T01:23:11.914Z,13.47
2018-08-23T01:25:42.295Z,13.10
2018-08-23T01:28:11.685Z,12.57
2018-08-23T01:30:41.375Z,14.77
2018-08-23T01:33:16.770Z,15.50
2018-08-23T01:35:48.724Z,13.70
2018-08-23T01:38:18.229Z,17.27
2018-08-23T01:40:47.460Z,14.80
2018-08-23T01:43:16.680Z,14.77
2018-08-23T01:45:45.951Z,13.10
2018-08-23T01:48:15.135Z,15.00
2018-08-23T01:50:44.487Z,15.70
2018-08-23T01:53:13.726Z,13.57
2018-08-23T01:55:42.916Z,16.27
2018-08-23T01:58:12.369Z,13.53
2018-08-23T02:00:41.553Z,14.80
2018-08-23T02:03:11.775Z,14.73
2018-08-23T02:05:43.084Z,15.00
2018-08-23T02:08:12.296Z,15.30
2018-08-23T02:10:41.499Z,14.93
2018-08-23T02:13:15.666Z,14.90
2018-08-23T02:15:50.756Z,14.40
2018-08-23T02:18:20.003Z,14.20
2018-08-23T02:20:54.339Z,14.57
2018-08-23T02:23:23.805Z,14.57
2018-08-23T02:25:53.224Z,15.23
2018-08-23T02:28:22.388Z,16.23
2018-08-23T02:30:52.758Z,15.53
2018-08-23T02:33:21.948Z,13.80
2018-08-23T02:36:03.543Z,15.33
2018-08-23T02:38:32.890Z,17.03
2018-08-23T02:41:02.052Z,16.40
2018-08-23T02:43:31.300Z,16.55
2018-08-23T02:46:03.050Z,17.37
2018-08-23T02:48:32.250Z,18.13
2018-08-23T02:51:01.468Z,17.87
2018-08-23T02:53:35.702Z,16.13
2018-08-23T02:56:06.963Z,16.27
2018-08-23T02:59:02.227Z,18.07
2018-08-23T03:01:32.637Z,17.00
2018-08-23T03:04:14.917Z,17.97
2018-08-23T03:06:50.307Z,16.70
2018-08-23T03:09:51.966Z,15.90
2018-08-23T03:12:21.230Z,16.30
2018-08-23T03:14:50.543Z,15.30
2018-08-23T03:18:22.650Z,17.00
2018-08-23T03:21:02.065Z,14.97
2018-08-23T03:23:31.281Z,15.70
2018-08-23T03:26:00.518Z,15.63
2018-08-23T03:28:29.848Z,16.73
2018-08-23T03:31:01.950Z,16.90
2018-08-23T03:33:32.756Z,18.60
2018-08-23T03:36:01.946Z,18.17
2018-08-23T03:38:31.310Z,17.70
2018-08-23T03:41:00.514Z,16.57
2018-08-23T03:43:29.689Z,17.63
2018-08-23T03:45:59.894Z,17.37
2018-08-23T03:48:29.097Z,16.67
2018-08-23T03:50:58.358Z,16.60
2018-08-23T03:53:42.667Z,19.07
2018-08-23T03:56:11.936Z,17.97
2018-08-23T03:58:41.098Z,17.07
2018-08-23T04:01:13.761Z,18.27
2018-08-23T04:03:43.185Z,17.60
2018-08-23T04:06:25.049Z,17.70
2018-08-23T04:08:54.259Z,19.07
2018-08-23T04:11:23.450Z,23.42
2018-08-23T04:13:52.681Z,19.80
2018-08-23T04:16:29.377Z,19.20
2018-08-23T04:18:58.588Z,18.30
2018-08-23T04:21:28.755Z,19.05
2018-08-23T04:23:58.365Z,18.63
2018-08-23T04:26:28.045Z,19.53
2018-08-23T04:28:57.290Z,19.40
2018-08-23T04:31:26.458Z,20.30
2018-08-23T04:33:55.768Z,19.40
2018-08-23T04:36:31.135Z,19.33
2018-08-23T04:39:01.454Z,19.20
2018-08-23T04:41:31.869Z,20.00
2018-08-23T04:44:03.827Z,22.07
2018-08-23T04:46:33.604Z,22.27
2018-08-23T04:49:05.050Z,20.60
2018-08-23T04:51:35.045Z,21.87
2018-08-23T04:54:04.348Z,21.80
2018-08-23T04:56:33.643Z,21.77
2018-08-23T04:59:02.784Z,19.67
2018-08-23T05:01:32.005Z,20.37
2018-08-23T05:04:01.249Z,19.87
2018-08-23T05:06:30.498Z,19.57
2018-08-23T05:08:59.682Z,19.80
2018-08-23T05:11:28.861Z,20.40
2018-08-23T05:13:58.224Z,21.10
2018-08-23T05:16:27.417Z,20.95
2018-08-23T05:18:56.616Z,20.70
2018-08-23T05:21:25.884Z,21.52
2018-08-23T05:23:59.425Z,23.57
2018-08-23T05:26:28.700Z,21.30
2018-08-23T05:29:02.596Z,23.77
2018-08-23T05:31:32.810Z,23.60
2018-08-23T05:34:04.634Z,24.10
2018-08-23T05:36:33.901Z,22.90
2018-08-23T05:39:04.785Z,23.47
2018-08-23T05:41:34.003Z,21.93
2018-08-23T05:44:13.053Z,24.90
2018-08-23T05:46:49.160Z,25.40
2018-08-23T05:49:18.503Z,26.20
2018-08-23T05:51:47.810Z,26.43
2018-08-23T05:54:17.142Z,27.80
2018-08-23T05:56:47.168Z,27.07
2018-08-23T05:59:17.715Z,28.97
2018-08-23T06:01:47.772Z,26.27
2018-08-23T06:04:18.475Z,26.00
2018-08-23T06:06:47.709Z,26.50
2018-08-23T06:09:17.077Z,26.62
2018-08-23T06:11:46.239Z,24.00
2018-08-23T06:14:15.571Z,23.27
2018-08-23T06:17:01.381Z,24.77
2018-08-23T06:19:30.779Z,21.50
2018-08-23T06:22:00.052Z,21.65
2018-08-23T06:24:30.279Z,22.03
2018-08-23T06:27:02.054Z,21.57
2018-08-23T06:29:34.957Z,20.83
2018-08-23T06:32:10.128Z,19.37
2018-08-23T06:34:51.217Z,20.67
2018-08-23T06:37:21.626Z,18.77
2018-08-23T06:39:50.792Z,17.73
2018-08-23T06:42:20.129Z,17.23
2018-08-23T06:44:54.481Z,19.03
2018-08-23T06:47:25.217Z,18.67
2018-08-23T06:49:55.071Z,19.67
2018-08-23T06:52:36.359Z,16.60
2018-08-23T06:55:05.967Z,16.70
2018-08-23T06:57:40.621Z,16.10
2018-08-23T07:00:09.967Z,17.03
2018-08-23T07:02:44.357Z,16.00
2018-08-23T07:05:13.615Z,14.97
2018-08-23T07:07:42.793Z,15.47
2018-08-23T07:10:12.854Z,14.20
2018-08-23T07:12:42.062Z,15.17
2018-08-23T07:15:12.033Z,16.13
2018-08-23T07:17:41.326Z,14.47
2018-08-23T07:20:17.070Z,15.90
2018-08-23T07:22:46.286Z,13.67
2018-08-23T07:25:16.794Z,14.60
2018-08-23T07:27:46.038Z,14.73
2018-08-23T07:30:17.514Z,14.50
2018-08-23T07:32:48.014Z,14.97
2018-08-23T07:35:19.633Z,13.60
2018-08-23T07:37:50.866Z,17.07
2018-08-23T07:40:21.231Z,14.87
2018-08-23T07:42:51.539Z,17.00
2018-08-23T07:45:20.722Z,15.60
2018-08-23T07:47:54.043Z,14.87
2018-08-23T07:50:23.263Z,15.00
2018-08-23T07:52:53.911Z,14.70
2018-08-23T07:55:23.013Z,14.37
2018-08-23T07:57:52.179Z,15.10
2018-08-23T08:00:38.069Z,13.67
2018-08-23T08:03:08.097Z,13.47
2018-08-23T08:05:38.644Z,12.80
2018-08-23T08:08:08.889Z,12.90
2018-08-23T08:10:39.646Z,12.93
2018-08-23T08:13:08.988Z,13.30
2018-08-23T08:15:38.285Z,12.77
2018-08-23T08:18:15.518Z,12.90
2018-08-23T08:21:15.006Z,11.47
2018-08-23T08:23:44.658Z,11.63
2018-08-23T08:26:13.904Z,12.97
2018-08-23T08:28:43.102Z,12.70
2018-08-23T08:31:12.353Z,13.33
2018-08-23T08:33:41.560Z,12.63
2018-08-23T08:36:10.857Z,12.58
2018-08-23T08:38:40.252Z,13.07
2018-08-23T08:41:09.564Z,11.25
2018-08-23T08:43:39.483Z,12.43
2018-08-23T08:46:08.733Z,12.15
2018-08-23T08:48:37.903Z,11.80
2018-08-23T08:51:28.769Z,11.00
2018-08-23T08:53:58.998Z,10.80
2018-08-23T08:56:35.198Z,11.40
2018-08-23T08:59:04.458Z,11.53
2018-08-23T09:01:33.686Z,11.23
2018-08-23T09:04:03.097Z,10.28
2018-08-23T09:06:37.429Z,11.13
2018-08-23T09:09:15.982Z,10.50
2018-08-23T09:11:45.232Z,11.10
2018-08-23T09:14:14.549Z,10.47
2018-08-23T09:16:43.833Z,9.63
2018-08-23T09:19:13.060Z,10.07
2018-08-23T09:21:42.294Z,9.90
2018-08-23T09:24:25.966Z,10.00
2018-08-23T09:26:55.431Z,9.37
2018-08-23T09:29:35.206Z,9.63
2018-08-23T09:32:13.706Z,10.07
2018-08-23T09:34:43.032Z,9.90
2018-08-23T09:37:12.293Z,8.90
2018-08-23T09:39:41.562Z,9.30
2018-08-23T09:42:11.433Z,9.70
2018-08-23T09:44:53.432Z,9.43
2018-08-23T09:47:22.665Z,10.30
2018-08-23T09:49:51.929Z,10.20
2018-08-23T09:52:24.946Z,9.80
2018-08-23T09:54:54.155Z,10.20
2018-08-23T09:57:23.901Z,10.45
2018-08-23T09:59:55.061Z,10.00
2018-08-23T10:02:29.415Z,8.93
2018-08-23T10:05:04.397Z,9.70
2018-08-23T10:07:38.723Z,8.50
2018-08-23T10:10:13.178Z,9.40
2018-08-23T10:12:47.758Z,9.43
2018-08-23T10:15:22.015Z,8.45
2018-08-23T10:17:56.369Z,8.90
2018-08-23T10:20:30.942Z,7.97
2018-08-23T10:23:05.172Z,8.60
2018-08-23T10:25:43.347Z,8.70
2018-08-23T10:28:16.322Z,9.30
2018-08-23T10:30:45.817Z,8.80
2018-08-23T10:33:15.089Z,8.40
2018-08-23T10:35:49.670Z,9.37
2018-08-23T10:38:20.408Z,8.90
2018-08-23T10:40:50.621Z,8.90
2018-08-23T10:43:24.928Z,8.47
2018-08-23T10:45:54.424Z,9.27
2018-08-23T10:48:24.353Z,9.50
2018-08-23T10:50:53.650Z,9.80
2018-08-23T10:53:22.940Z,10.00
2018-08-23T10:55:53.758Z,9.17
2018-08-23T10:58:23.019Z,9.60
2018-08-23T11:00:52.197Z,8.83
2018-08-23T11:03:21.392Z,9.50
2018-08-23T11:05:51.395Z,9.50
2018-08-23T11:08:25.673Z,9.10
2018-08-23T11:11:00.067Z,9.80
2018-08-23T11:13:34.400Z,9.87
2018-08-23T11:16:08.947Z,10.30
2018-08-23T11:18:43.578Z,9.50
2018-08-23T11:21:17.585Z,9.20
2018-08-23T11:23:47.248Z,9.93
2018-08-23T11:26:21.654Z,9.40
2018-08-23T11:28:51.285Z,9.97
2018-08-23T11:31:25.667Z,8.75
2018-08-23T11:33:54.990Z,9.60
2018-08-23T11:36:24.241Z,8.37
2018-08-23T11:38:53.522Z,9.20
2018-08-23T11:41:22.738Z,10.53
2018-08-23T11:43:52.059Z,9.00
2018-08-23T11:46:22.218Z,9.90
2018-08-23T11:48:51.462Z,9.90
2018-08-23T11:51:20.779Z,9.88
2018-08-23T11:53:50.072Z,9.80
2018-08-23T11:56:19.241Z,9.23
2018-08-23T11:58:48.607Z,10.00
2018-08-23T12:01:18.181Z,10.33
2018-08-23T12:03:47.432Z,10.23
2018-08-23T12:06:17.514Z,9.10
2018-08-23T12:08:47.237Z,10.30
2018-08-23T12:11:16.470Z,9.83
2018-08-23T12:13:48.577Z,9.57
2018-08-23T12:16:17.791Z,10.30
2018-08-23T12:18:47.076Z,9.47
2018-08-23T12:21:17.376Z,10.70
2018-08-23T12:23:46.872Z,9.97
2018-08-23T12:26:17.559Z,9.90
2018-08-23T12:28:53.116Z,9.90
2018-08-23T12:31:23.877Z,11.30
2018-08-23T12:33:54.166Z,10.77
2018-08-23T12:36:30.215Z,9.20
2018-08-23T12:39:04.591Z,10.83
2018-08-23T12:41:39.329Z,11.60
2018-08-23T12:44:13.386Z,10.23
2018-08-23T12:46:42.697Z,10.40
2018-08-23T12:49:11.909Z,10.00
2018-08-23T12:51:41.102Z,9.73
2018-08-23T12:54:10.334Z,10.70
2018-08-23T12:56:39.774Z,10.10
2018-08-23T12:59:09.042Z,11.93
2018-08-23T13:01:38.222Z,10.90
2018-08-23T13:04:07.676Z,9.67
2018-08-23T13:06:36.941Z,9.53
2018-08-23T13:09:07.678Z,10.03
2018-08-23T13:11:36.837Z,10.23
2018-08-23T13:14:06.191Z,8.87
2018-08-23T13:16:35.370Z,9.93
2018-08-23T13:19:04.685Z,9.83
2018-08-23T13:21:34.074Z,9.60
2018-08-23T13:24:03.307Z,9.20
2018-08-23T13:26:37.703Z,10.10
2018-08-23T13:29:07.137Z,9.73
2018-08-23T13:31:36.353Z,9.87
2018-08-23T13:34:05.633Z,9.80
2018-08-23T13:36:34.890Z,9.13
2018-08-23T13:39:04.921Z,10.57
2018-08-23T13:41:34.201Z,9.27
2018-08-23T13:44:03.419Z,8.50
2018-08-23T13:46:32.694Z,9.70
2018-08-23T13:49:02.238Z,8.90
2018-08-23T13:51:31.657Z,9.10
2018-08-23T13:54:00.974Z,9.90
2018-08-23T13:56:30.084Z,9.30
2018-08-23T13:58:59.352Z,9.00
2018-08-23T14:01:29.573Z,9.73
2018-08-23T14:03:58.969Z,9.70
2018-08-23T14:06:28.277Z,8.70
2018-08-23T14:08:57.457Z,8.80
2018-08-23T14:11:26.672Z,9.45
2018-08-23T14:13:56.340Z,9.67
2018-08-23T14:16:25.734Z,9.00
2018-08-23T14:18:55.021Z,7.80
2018-08-23T14:21:24.287Z,8.50
2018-08-23T14:23:53.514Z,8.87
2018-08-23T14:26:22.818Z,8.40
2018-08-23T14:28:52.029Z,9.80
2018-08-23T14:31:21.352Z,9.53
2018-08-23T14:33:50.695Z,8.57
2018-08-23T14:36:19.934Z,9.10
2018-08-23T14:38:49.179Z,7.50
2018-08-23T14:41:18.393Z,7.53
2018-08-23T14:43:47.614Z,8.70
2018-08-23T14:46:21.923Z,7.80
2018-08-23T14:48:51.088Z,8.10
2018-08-23T14:51:20.395Z,8.50
2018-08-23T14:53:49.717Z,8.57
2018-08-23T14:56:24.168Z,8.80
2018-08-23T14:58:53.544Z,8.00
2018-08-23T15:01:22.811Z,7.90
2018-08-23T15:03:52.037Z,7.37
2018-08-23T15:06:21.261Z,7.83
2018-08-23T15:08:50.442Z,8.07
2018-08-23T15:11:23.723Z,9.10
2018-08-23T15:13:52.927Z,7.70
2018-08-23T15:16:22.098Z,7.53
2018-08-23T15:18:51.338Z,7.07
2018-08-23T15:21:20.626Z,8.27
2018-08-23T15:23:49.870Z,8.10
2018-08-23T15:26:19.241Z,8.20
2018-08-23T15:28:48.318Z,7.50
2018-08-23T15:31:17.534Z,8.33
2018-08-23T15:33:46.866Z,8.50
2018-08-23T15:36:16.047Z,8.10
2018-08-23T15:38:45.226Z,8.60
2018-08-23T15:41:14.532Z,8.27
2018-08-23T15:43:43.815Z,8.00
2018-08-23T15:46:13.083Z,8.20
2018-08-23T15:48:42.388Z,7.97
2018-08-23T15:51:11.598Z,7.67
2018-08-23T15:53:40.823Z,8.00
2018-08-23T15:56:10.178Z,8.70
2018-08-23T15:58:39.472Z,7.90
2018-08-23T16:01:08.749Z,8.53
2018-08-23T16:03:38.077Z,8.60
2018-08-23T16:06:07.332Z,8.30
2018-08-23T16:08:41.732Z,8.73
2018-08-23T16:11:11.438Z,9.17
2018-08-23T16:13:40.678Z,9.23
2018-08-23T16:16:15.284Z,8.13
2018-08-23T16:18:49.573Z,8.90
2018-08-23T16:21:22.931Z,8.70
2018-08-23T16:23:52.150Z,9.10
2018-08-23T16:26:21.409Z,9.00
2018-08-23T16:28:50.649Z,8.33
2018-08-23T16:31:19.872Z,8.63
2018-08-23T16:33:49.188Z,8.60
2018-08-23T16:36:18.425Z,9.10
2018-08-23T16:38:47.589Z,7.90
2018-08-23T16:41:16.789Z,8.55
2018-08-23T16:43:45.974Z,9.00
2018-08-23T16:46:15.238Z,8.80
2018-08-23T16:48:44.609Z,8.57
2018-08-23T16:51:13.857Z,8.80
2018-08-23T16:53:43.548Z,9.17
2018-08-23T16:56:12.807Z,7.60
2018-08-23T16:58:42.193Z,8.77
2018-08-23T17:01:11.360Z,8.67
2018-08-23T17:03:41.098Z,8.33
2018-08-23T17:06:10.340Z,7.77
2018-08-23T17:08:40.085Z,8.77
2018-08-23T17:11:09.365Z,8.50
2018-08-23T17:13:38.609Z,9.20
2018-08-23T17:16:12.960Z,8.43
2018-08-23T17:18:42.205Z,8.37
2018-08-23T17:21:11.413Z,8.30
2018-08-23T17:23:40.634Z,8.00
2018-08-23T17:26:09.846Z,8.30
2018-08-23T17:28:39.065Z,9.00
2018-08-23T17:31:08.728Z,9.80
2018-08-23T17:33:37.926Z,7.60
2018-08-23T17:36:07.154Z,7.43
2018-08-23T17:38:36.316Z,8.33
2018-08-23T17:41:05.621Z,7.80
2018-08-23T17:43:34.806Z,7.37
2018-08-23T17:46:04.073Z,7.60
2018-08-23T17:48:34.312Z,8.20
2018-08-23T17:51:03.513Z,8.90
2018-08-23T17:53:32.663Z,8.23
2018-08-23T17:56:01.955Z,8.60
2018-08-23T17:58:31.174Z,8.40
2018-08-23T18:01:00.548Z,8.87
2018-08-23T18:03:29.751Z,8.70
2018-08-23T18:05:58.983Z,8.77
2018-08-23T18:08:28.515Z,7.40
2018-08-23T18:10:57.749Z,8.43
2018-08-23T18:13:27.444Z,7.85
2018-08-23T18:16:01.831Z,7.70
2018-08-23T18:18:31.073Z,8.10
2018-08-23T18:21:00.352Z,7.90
2018-08-23T18:23:30.338Z,7.90
2018-08-23T18:25:59.606Z,8.70
2018-08-23T18:28:28.811Z,9.47
2018-08-23T18:30:58.774Z,9.93
2018-08-23T18:33:28.051Z,8.97
2018-08-23T18:35:57.254Z,9.50
2018-08-23T18:38:26.481Z,9.20
2018-08-23T18:40:55.643Z,9.53
2018-08-23T18:43:24.927Z,8.27
2018-08-23T18:45:55.472Z,9.20
2018-08-23T18:48:24.638Z,9.00
2018-08-23T18:50:53.857Z,9.90
2018-08-23T18:53:23.067Z,9.10
2018-08-23T18:55:52.383Z,9.10
2018-08-23T18:58:21.601Z,9.20
2018-08-23T19:00:50.820Z,9.63
2018-08-23T19:03:20.102Z,10.03
2018-08-23T19:05:49.336Z,10.40
2018-08-23T19:08:18.569Z,8.60
2018-08-23T19:10:47.816Z,8.87
2018-08-23T19:13:17.124Z,10.50
2018-08-23T19:15:51.499Z,12.73
2018-08-23T19:18:20.738Z,12.37
2018-08-23T19:20:50.010Z,13.43
2018-08-23T19:23:19.366Z,14.20
2018-08-23T19:25:48.529Z,14.30
2018-08-23T19:28:17.778Z,15.07
2018-08-23T19:30:47.036Z,15.50
2018-08-23T19:33:16.286Z,13.93
2018-08-23T19:35:45.544Z,14.30
2018-08-23T19:38:16.433Z,16.03
2018-08-23T19:40:45.664Z,13.77
2018-08-23T19:43:14.938Z,14.80
2018-08-23T19:45:49.229Z,15.83
2018-08-23T19:48:18.657Z,14.55
2018-08-23T19:50:47.902Z,15.20
2018-08-23T19:53:17.150Z,15.03
2018-08-23T19:55:46.347Z,14.90
2018-08-23T19:58:15.605Z,15.73
2018-08-23T20:00:44.846Z,15.50
2018-08-23T20:03:14.170Z,15.83
2018-08-23T20:05:43.360Z,15.13
2018-08-23T20:08:12.545Z,15.77
2018-08-23T20:10:41.713Z,15.87
2018-08-23T20:13:10.979Z,16.40
2018-08-23T20:15:41.266Z,17.03
2018-08-23T20:18:10.558Z,14.27
2018-08-23T20:20:39.806Z,16.57
2018-08-23T20:23:09.197Z,16.30
2018-08-23T20:25:38.440Z,16.27
2018-08-23T20:28:07.765Z,17.00
2018-08-23T20:30:37.665Z,15.80
2018-08-23T20:33:07.105Z,16.07
2018-08-23T20:35:36.278Z,15.10
2018-08-23T20:38:05.602Z,13.83
2018-08-23T20:40:34.807Z,13.47
2018-08-23T20:43:04.027Z,13.10
2018-08-23T20:45:33.448Z,13.43
2018-08-23T20:48:02.616Z,11.07
2018-08-23T20:50:31.779Z,11.13
2018-08-23T20:53:01.455Z,10.40
2018-08-23T20:55:30.676Z,9.50
2018-08-23T20:57:59.970Z,9.10
2018-08-23T21:00:29.178Z,9.40
2018-08-23T21:02:58.370Z,8.67
2018-08-23T21:05:27.546Z,9.00
2018-08-23T21:07:56.802Z,8.20
2018-08-23T21:10:26.002Z,8.73
2018-08-23T21:12:55.254Z,9.10
2018-08-23T21:15:24.510Z,10.75
2018-08-23T21:17:54.852Z,9.27
2018-08-23T21:20:24.033Z,9.20
2018-08-23T21:22:53.269Z,9.10
2018-08-23T21:25:22.494Z,9.70
2018-08-23T21:27:51.718Z,9.00
2018-08-23T21:30:21.282Z,8.57
2018-08-23T21:32:50.502Z,8.70
2018-08-23T21:35:19.658Z,7.85
2018-08-23T21:37:48.868Z,9.23
2018-08-23T21:40:18.670Z,9.10
2018-08-23T21:42:47.872Z,8.80
2018-08-23T21:45:17.135Z,8.88
2018-08-23T21:47:46.400Z,9.20
2018-08-23T21:50:15.749Z,8.60
2018-08-23T21:52:44.976Z,9.07
2018-08-23T21:55:14.403Z,8.10
2018-08-23T21:57:43.560Z,9.47
2018-08-23T22:00:12.929Z,8.53
2018-08-23T22:02:42.157Z,7.77
2018-08-23T22:05:11.678Z,7.83
2018-08-23T22:07:40.882Z,8.17
2018-08-23T22:10:10.164Z,7.90
2018-08-23T22:12:39.349Z,7.93
2018-08-23T22:15:08.703Z,7.57
2018-08-23T22:17:37.952Z,7.37
2018-08-23T22:20:07.215Z,7.73
2018-08-23T22:22:36.485Z,7.40
2018-08-23T22:25:05.931Z,7.50
2018-08-23T22:27:35.597Z,7.60
2018-08-23T22:30:05.081Z,6.97
2018-08-23T22:32:34.287Z,8.37
2018-08-23T22:35:03.467Z,6.90
2018-08-23T22:37:32.859Z,7.30
2018-08-23T22:40:02.062Z,7.40
2018-08-23T22:42:31.311Z,7.30
2018-08-23T22:45:01.106Z,5.77
2018-08-23T22:47:30.444Z,6.78
2018-08-23T22:49:59.710Z,5.90
2018-08-23T22:52:29.137Z,6.93
2018-08-23T22:54:58.330Z,5.70
2018-08-23T22:57:27.567Z,5.90
2018-08-23T22:59:56.795Z,5.13
2018-08-23T23:02:31.182Z,4.97
2018-08-23T23:05:00.390Z,5.20
2018-08-23T23:07:29.630Z,4.93
2018-08-23T23:09:58.853Z,5.60
2018-08-23T23:12:28.446Z,4.57
2018-08-23T23:14:57.741Z,4.87
2018-08-23T23:17:27.240Z,3.80
2018-08-23T23:19:56.568Z,3.30
2018-08-23T23:22:25.729Z,3.90
2018-08-23T23:25:00.854Z,3.60
2018-08-23T23:27:30.680Z,4.57
2018-08-23T23:30:00.399Z,4.73
2018-08-23T23:32:29.610Z,4.67
2018-08-23T23:34:59.032Z,5.90
2018-08-23T23:37:28.288Z,4.83
2018-08-23T23:39:57.507Z,5.30
2018-08-23T23:42:26.681Z,4.80
2018-08-23T23:44:56.238Z,5.30
2018-08-23T23:47:25.434Z,5.08
2018-08-23T23:49:54.806Z,5.27
2018-08-23T23:52:24.011Z,4.87
2018-08-23T23:54:53.271Z,4.17
2018-08-23T23:57:22.467Z,4.30
2018-08-23T23:59:51.661Z,4.60
